sensor_id;sensor_type;location;lat;lon;timestamp;temperature;humidity
68433;DHT22;55412;51.350;17.056;2022-07-29T00:01:00;13.40;63.10
68433;DHT22;55412;51.350;17.056;2022-07-29T00:03:26;13.40;63.20
68433;DHT22;55412;51.350;17.056;2022-07-29T00:05:52;13.40;63.30
68433;DHT22;55412;51.350;17.056;2022-07-29T00:08:19;13.40;63.20
68433;DHT22;55412;51.350;17.056;2022-07-29T00:10:45;13.40;63.50
68433;DHT22;55412;51.350;17.056;2022-07-29T00:13:11;13.30;63.60
68433;DHT22;55412;51.350;17.056;2022-07-29T00:15:37;13.20;63.90
68433;DHT22;55412;51.350;17.056;2022-07-29T00:18:04;13.20;64.10
68433;DHT22;55412;51.350;17.056;2022-07-29T00:20:30;13.10;64.50
68433;DHT22;55412;51.350;17.056;2022-07-29T00:22:57;13.10;64.70
68433;DHT22;55412;51.350;17.056;2022-07-29T00:25:23;13.00;64.90
68433;DHT22;55412;51.350;17.056;2022-07-29T00:27:49;13.00;64.80
68433;DHT22;55412;51.350;17.056;2022-07-29T00:30:15;13.00;65.00
68433;DHT22;55412;51.350;17.056;2022-07-29T00:32:41;13.00;64.90
68433;DHT22;55412;51.350;17.056;2022-07-29T00:35:08;13.00;64.90
68433;DHT22;55412;51.350;17.056;2022-07-29T00:37:52;13.00;65.20
68433;DHT22;55412;51.350;17.056;2022-07-29T00:40:19;12.90;65.40
68433;DHT22;55412;51.350;17.056;2022-07-29T00:42:46;12.90;65.50
68433;DHT22;55412;51.350;17.056;2022-07-29T00:45:14;12.90;65.50
68433;DHT22;55412;51.350;17.056;2022-07-29T00:47:41;12.90;65.20
68433;DHT22;55412;51.350;17.056;2022-07-29T00:50:09;12.80;65.20
68433;DHT22;55412;51.350;17.056;2022-07-29T00:52:38;12.80;65.70
68433;DHT22;55412;51.350;17.056;2022-07-29T00:55:11;12.80;65.70
68433;DHT22;55412;51.350;17.056;2022-07-29T00:57:38;12.80;65.80
68433;DHT22;55412;51.350;17.056;2022-07-29T01:00:09;12.80;66.00
68433;DHT22;55412;51.350;17.056;2022-07-29T01:02:37;12.70;66.20
68433;DHT22;55412;51.350;17.056;2022-07-29T01:05:05;12.70;66.20
68433;DHT22;55412;51.350;17.056;2022-07-29T01:07:35;12.70;66.30
68433;DHT22;55412;51.350;17.056;2022-07-29T01:10:08;12.60;66.40
68433;DHT22;55412;51.350;17.056;2022-07-29T01:12:37;12.60;66.10
68433;DHT22;55412;51.350;17.056;2022-07-29T01:15:05;12.60;66.00
68433;DHT22;55412;51.350;17.056;2022-07-29T01:17:48;12.60;65.80
68433;DHT22;55412;51.350;17.056;2022-07-29T01:26:49;12.50;66.10
68433;DHT22;55412;51.350;17.056;2022-07-29T01:32:18;12.40;66.20
68433;DHT22;55412;51.350;17.056;2022-07-29T01:37:50;12.50;66.10
68433;DHT22;55412;51.350;17.056;2022-07-29T01:40:51;12.40;66.20
68433;DHT22;55412;51.350;17.056;2022-07-29T01:43:27;12.40;66.20
68433;DHT22;55412;51.350;17.056;2022-07-29T01:46:02;12.40;66.00
68433;DHT22;55412;51.350;17.056;2022-07-29T01:51:20;12.40;66.50
68433;DHT22;55412;51.350;17.056;2022-07-29T01:54:14;12.30;66.30
68433;DHT22;55412;51.350;17.056;2022-07-29T01:56:43;12.30;66.20
68433;DHT22;55412;51.350;17.056;2022-07-29T01:59:11;12.30;66.30
68433;DHT22;55412;51.350;17.056;2022-07-29T02:01:39;12.30;66.60
68433;DHT22;55412;51.350;17.056;2022-07-29T02:04:10;12.30;66.70
68433;DHT22;55412;51.350;17.056;2022-07-29T02:06:38;12.20;66.60
68433;DHT22;55412;51.350;17.056;2022-07-29T02:09:07;12.20;66.40
68433;DHT22;55412;51.350;17.056;2022-07-29T02:11:35;12.30;66.70
68433;DHT22;55412;51.350;17.056;2022-07-29T02:14:04;12.20;66.80
68433;DHT22;55412;51.350;17.056;2022-07-29T02:16:32;12.20;66.60
68433;DHT22;55412;51.350;17.056;2022-07-29T02:19:01;12.30;66.70
68433;DHT22;55412;51.350;17.056;2022-07-29T02:21:29;12.30;66.50
68433;DHT22;55412;51.350;17.056;2022-07-29T02:23:58;12.30;66.40
68433;DHT22;55412;51.350;17.056;2022-07-29T02:26:26;12.40;66.10
68433;DHT22;55412;51.350;17.056;2022-07-29T02:28:56;12.40;66.00
68433;DHT22;55412;51.350;17.056;2022-07-29T02:31:25;12.40;65.90
68433;DHT22;55412;51.350;17.056;2022-07-29T02:33:54;12.40;65.90
68433;DHT22;55412;51.350;17.056;2022-07-29T02:36:22;12.50;66.10
68433;DHT22;55412;51.350;17.056;2022-07-29T02:38:50;12.50;66.00
68433;DHT22;55412;51.350;17.056;2022-07-29T02:41:28;12.60;65.80
68433;DHT22;55412;51.350;17.056;2022-07-29T02:44:03;12.70;65.80
68433;DHT22;55412;51.350;17.056;2022-07-29T02:46:34;12.70;65.50
68433;DHT22;55412;51.350;17.056;2022-07-29T02:49:16;12.80;65.30
68433;DHT22;55412;51.350;17.056;2022-07-29T02:51:54;12.80;65.20
68433;DHT22;55412;51.350;17.056;2022-07-29T02:54:44;12.80;65.20
68433;DHT22;55412;51.350;17.056;2022-07-29T02:57:22;12.90;65.10
68433;DHT22;55412;51.350;17.056;2022-07-29T03:00:05;12.90;65.20
68433;DHT22;55412;51.350;17.056;2022-07-29T03:02:36;13.00;65.10
68433;DHT22;55412;51.350;17.056;2022-07-29T03:05:08;12.90;64.80
68433;DHT22;55412;51.350;17.056;2022-07-29T03:07:35;13.00;64.90
68433;DHT22;55412;51.350;17.056;2022-07-29T03:10:03;13.00;65.20
68433;DHT22;55412;51.350;17.056;2022-07-29T03:12:30;13.00;64.90
68433;DHT22;55412;51.350;17.056;2022-07-29T03:14:57;13.00;64.80
68433;DHT22;55412;51.350;17.056;2022-07-29T03:17:24;13.00;64.70
68433;DHT22;55412;51.350;17.056;2022-07-29T03:19:51;13.10;65.70
68433;DHT22;55412;51.350;17.056;2022-07-29T03:22:18;13.00;64.90
68433;DHT22;55412;51.350;17.056;2022-07-29T03:24:44;13.00;65.00
68433;DHT22;55412;51.350;17.056;2022-07-29T03:27:10;12.90;65.30
68433;DHT22;55412;51.350;17.056;2022-07-29T03:29:36;12.90;65.20
68433;DHT22;55412;51.350;17.056;2022-07-29T03:32:04;12.90;65.30
68433;DHT22;55412;51.350;17.056;2022-07-29T03:34:31;13.00;65.90
68433;DHT22;55412;51.350;17.056;2022-07-29T03:36:57;13.10;65.90
68433;DHT22;55412;51.350;17.056;2022-07-29T03:39:25;13.10;66.30
68433;DHT22;55412;51.350;17.056;2022-07-29T03:41:55;13.00;66.20
68433;DHT22;55412;51.350;17.056;2022-07-29T03:44:23;13.10;66.20
68433;DHT22;55412;51.350;17.056;2022-07-29T03:46:52;13.10;66.50
68433;DHT22;55412;51.350;17.056;2022-07-29T03:49:21;13.10;67.60
68433;DHT22;55412;51.350;17.056;2022-07-29T03:51:49;13.20;67.90
68433;DHT22;55412;51.350;17.056;2022-07-29T03:54:15;13.20;67.10
68433;DHT22;55412;51.350;17.056;2022-07-29T03:56:43;13.30;67.50
68433;DHT22;55412;51.350;17.056;2022-07-29T03:59:14;13.50;68.30
68433;DHT22;55412;51.350;17.056;2022-07-29T04:01:42;13.60;68.10
68433;DHT22;55412;51.350;17.056;2022-07-29T04:04:09;13.70;67.70
68433;DHT22;55412;51.350;17.056;2022-07-29T04:06:42;13.70;67.20
68433;DHT22;55412;51.350;17.056;2022-07-29T04:09:09;13.80;67.90
68433;DHT22;55412;51.350;17.056;2022-07-29T04:11:38;13.90;68.10
68433;DHT22;55412;51.350;17.056;2022-07-29T04:14:05;14.00;68.10
68433;DHT22;55412;51.350;17.056;2022-07-29T04:16:31;14.10;67.70
68433;DHT22;55412;51.350;17.056;2022-07-29T04:18:58;14.20;67.00
68433;DHT22;55412;51.350;17.056;2022-07-29T04:21:24;14.30;66.80
68433;DHT22;55412;51.350;17.056;2022-07-29T04:23:50;14.40;66.70
68433;DHT22;55412;51.350;17.056;2022-07-29T04:26:17;14.60;63.70
68433;DHT22;55412;51.350;17.056;2022-07-29T04:28:44;14.80;63.70
68433;DHT22;55412;51.350;17.056;2022-07-29T04:31:11;15.00;63.20
68433;DHT22;55412;51.350;17.056;2022-07-29T04:33:37;15.30;63.00
68433;DHT22;55412;51.350;17.056;2022-07-29T04:36:04;15.60;62.00
68433;DHT22;55412;51.350;17.056;2022-07-29T04:38:30;15.90;61.80
68433;DHT22;55412;51.350;17.056;2022-07-29T04:40:56;16.20;61.70
68433;DHT22;55412;51.350;17.056;2022-07-29T04:43:22;16.50;61.30
68433;DHT22;55412;51.350;17.056;2022-07-29T04:45:53;16.70;61.20
68433;DHT22;55412;51.350;17.056;2022-07-29T04:48:20;17.00;60.50
68433;DHT22;55412;51.350;17.056;2022-07-29T04:50:46;17.30;59.10
68433;DHT22;55412;51.350;17.056;2022-07-29T04:53:12;17.60;58.70
68433;DHT22;55412;51.350;17.056;2022-07-29T04:55:38;17.80;57.70
68433;DHT22;55412;51.350;17.056;2022-07-29T04:58:04;18.10;57.80
68433;DHT22;55412;51.350;17.056;2022-07-29T05:00:30;18.30;57.00
68433;DHT22;55412;51.350;17.056;2022-07-29T05:02:56;18.50;55.50
68433;DHT22;55412;51.350;17.056;2022-07-29T05:05:22;18.70;54.80
68433;DHT22;55412;51.350;17.056;2022-07-29T05:07:48;19.00;54.20
68433;DHT22;55412;51.350;17.056;2022-07-29T05:10:14;19.30;54.00
68433;DHT22;55412;51.350;17.056;2022-07-29T05:12:40;19.60;53.20
68433;DHT22;55412;51.350;17.056;2022-07-29T05:15:07;19.80;53.90
68433;DHT22;55412;51.350;17.056;2022-07-29T05:17:33;20.30;52.20
68433;DHT22;55412;51.350;17.056;2022-07-29T05:19:59;20.70;51.40
68433;DHT22;55412;51.350;17.056;2022-07-29T05:22:26;21.00;51.00
68433;DHT22;55412;51.350;17.056;2022-07-29T05:24:52;21.20;51.40
68433;DHT22;55412;51.350;17.056;2022-07-29T05:27:18;21.60;49.70
68433;DHT22;55412;51.350;17.056;2022-07-29T05:29:44;21.70;49.80
68433;DHT22;55412;51.350;17.056;2022-07-29T05:32:11;21.80;49.20
68433;DHT22;55412;51.350;17.056;2022-07-29T05:34:37;21.80;48.80
68433;DHT22;55412;51.350;17.056;2022-07-29T05:37:04;21.80;47.50
68433;DHT22;55412;51.350;17.056;2022-07-29T05:39:30;21.70;46.20
68433;DHT22;55412;51.350;17.056;2022-07-29T05:41:56;21.50;45.70
68433;DHT22;55412;51.350;17.056;2022-07-29T05:44:22;21.20;46.30
68433;DHT22;55412;51.350;17.056;2022-07-29T05:46:49;20.90;46.80
68433;DHT22;55412;51.350;17.056;2022-07-29T05:49:15;20.70;47.50
68433;DHT22;55412;51.350;17.056;2022-07-29T05:51:41;20.60;47.40
68433;DHT22;55412;51.350;17.056;2022-07-29T05:54:07;20.50;47.50
68433;DHT22;55412;51.350;17.056;2022-07-29T05:56:33;20.50;47.40
68433;DHT22;55412;51.350;17.056;2022-07-29T05:59:02;20.40;47.80
68433;DHT22;55412;51.350;17.056;2022-07-29T06:01:28;20.40;47.40
68433;DHT22;55412;51.350;17.056;2022-07-29T06:03:54;20.40;47.80
68433;DHT22;55412;51.350;17.056;2022-07-29T06:06:20;20.40;47.80
68433;DHT22;55412;51.350;17.056;2022-07-29T06:08:47;20.40;48.50
68433;DHT22;55412;51.350;17.056;2022-07-29T06:11:13;20.40;48.20
68433;DHT22;55412;51.350;17.056;2022-07-29T06:13:39;20.50;47.80
68433;DHT22;55412;51.350;17.056;2022-07-29T06:16:05;20.60;47.50
68433;DHT22;55412;51.350;17.056;2022-07-29T06:18:31;20.70;47.90
68433;DHT22;55412;51.350;17.056;2022-07-29T06:20:57;21.00;47.00
68433;DHT22;55412;51.350;17.056;2022-07-29T06:23:23;22.30;45.00
68433;DHT22;55412;51.350;17.056;2022-07-29T06:25:49;22.70;43.60
68433;DHT22;55412;51.350;17.056;2022-07-29T06:28:16;22.80;44.40
68433;DHT22;55412;51.350;17.056;2022-07-29T06:30:42;23.90;43.40
68433;DHT22;55412;51.350;17.056;2022-07-29T06:33:08;24.70;41.00
68433;DHT22;55412;51.350;17.056;2022-07-29T06:35:35;25.20;40.30
68433;DHT22;55412;51.350;17.056;2022-07-29T06:38:02;25.80;39.60
68433;DHT22;55412;51.350;17.056;2022-07-29T06:40:28;26.60;37.50
68433;DHT22;55412;51.350;17.056;2022-07-29T06:43:14;26.70;37.90
68433;DHT22;55412;51.350;17.056;2022-07-29T06:45:41;25.90;38.50
68433;DHT22;55412;51.350;17.056;2022-07-29T06:48:09;25.70;38.50
68433;DHT22;55412;51.350;17.056;2022-07-29T06:50:35;25.40;39.80
68433;DHT22;55412;51.350;17.056;2022-07-29T06:53:01;25.20;39.00
68433;DHT22;55412;51.350;17.056;2022-07-29T06:55:28;25.20;39.70
68433;DHT22;55412;51.350;17.056;2022-07-29T06:57:54;25.90;38.60
68433;DHT22;55412;51.350;17.056;2022-07-29T07:00:20;27.10;36.70
68433;DHT22;55412;51.350;17.056;2022-07-29T07:02:46;27.90;36.30
68433;DHT22;55412;51.350;17.056;2022-07-29T07:05:12;28.20;35.30
68433;DHT22;55412;51.350;17.056;2022-07-29T07:07:39;27.60;36.40
68433;DHT22;55412;51.350;17.056;2022-07-29T07:10:05;26.80;37.10
68433;DHT22;55412;51.350;17.056;2022-07-29T07:12:32;25.90;37.70
68433;DHT22;55412;51.350;17.056;2022-07-29T07:14:58;25.30;38.40
68433;DHT22;55412;51.350;17.056;2022-07-29T07:17:24;24.90;39.50
68433;DHT22;55412;51.350;17.056;2022-07-29T07:19:50;24.80;40.30
68433;DHT22;55412;51.350;17.056;2022-07-29T07:22:16;24.60;40.10
68433;DHT22;55412;51.350;17.056;2022-07-29T07:24:42;24.60;41.10
68433;DHT22;55412;51.350;17.056;2022-07-29T07:27:08;24.80;40.80
68433;DHT22;55412;51.350;17.056;2022-07-29T07:29:34;24.80;40.80
68433;DHT22;55412;51.350;17.056;2022-07-29T07:32:00;24.90;41.60
68433;DHT22;55412;51.350;17.056;2022-07-29T07:34:27;24.90;40.00
68433;DHT22;55412;51.350;17.056;2022-07-29T07:36:55;24.80;39.30
68433;DHT22;55412;51.350;17.056;2022-07-29T07:39:21;24.80;40.30
68433;DHT22;55412;51.350;17.056;2022-07-29T07:41:47;24.80;40.30
68433;DHT22;55412;51.350;17.056;2022-07-29T07:44:13;25.00;39.90
68433;DHT22;55412;51.350;17.056;2022-07-29T07:46:39;25.10;39.80
68433;DHT22;55412;51.350;17.056;2022-07-29T07:49:05;25.00;39.90
68433;DHT22;55412;51.350;17.056;2022-07-29T07:51:31;25.00;41.60
68433;DHT22;55412;51.350;17.056;2022-07-29T07:53:58;25.10;40.80
68433;DHT22;55412;51.350;17.056;2022-07-29T07:56:25;24.90;40.90
68433;DHT22;55412;51.350;17.056;2022-07-29T07:58:51;24.60;40.60
68433;DHT22;55412;51.350;17.056;2022-07-29T08:01:17;24.50;40.70
68433;DHT22;55412;51.350;17.056;2022-07-29T08:03:45;24.40;41.20
68433;DHT22;55412;51.350;17.056;2022-07-29T08:06:11;24.40;42.00
68433;DHT22;55412;51.350;17.056;2022-07-29T08:08:37;24.40;42.10
68433;DHT22;55412;51.350;17.056;2022-07-29T08:11:04;24.40;42.10
68433;DHT22;55412;51.350;17.056;2022-07-29T08:13:32;24.50;40.90
68433;DHT22;55412;51.350;17.056;2022-07-29T08:15:58;24.60;40.90
68433;DHT22;55412;51.350;17.056;2022-07-29T08:18:36;24.60;41.60
68433;DHT22;55412;51.350;17.056;2022-07-29T08:21:03;24.80;40.60
68433;DHT22;55412;51.350;17.056;2022-07-29T08:23:30;24.60;41.60
68433;DHT22;55412;51.350;17.056;2022-07-29T08:26:05;24.50;41.20
68433;DHT22;55412;51.350;17.056;2022-07-29T08:28:39;24.70;41.60
68433;DHT22;55412;51.350;17.056;2022-07-29T08:31:10;24.60;40.10
68433;DHT22;55412;51.350;17.056;2022-07-29T08:33:36;24.50;41.20
68433;DHT22;55412;51.350;17.056;2022-07-29T08:36:02;24.40;41.20
68433;DHT22;55412;51.350;17.056;2022-07-29T08:38:28;24.30;41.10
68433;DHT22;55412;51.350;17.056;2022-07-29T08:40:55;24.40;41.10
68433;DHT22;55412;51.350;17.056;2022-07-29T08:43:21;24.60;41.00
68433;DHT22;55412;51.350;17.056;2022-07-29T08:45:51;24.70;42.00
68433;DHT22;55412;51.350;17.056;2022-07-29T08:48:20;24.80;40.50
68433;DHT22;55412;51.350;17.056;2022-07-29T08:50:52;24.90;40.80
68433;DHT22;55412;51.350;17.056;2022-07-29T08:53:21;25.00;40.60
68433;DHT22;55412;51.350;17.056;2022-07-29T08:55:49;24.90;41.00
68433;DHT22;55412;51.350;17.056;2022-07-29T08:58:17;24.80;41.00
68433;DHT22;55412;51.350;17.056;2022-07-29T09:00:46;24.90;40.90
68433;DHT22;55412;51.350;17.056;2022-07-29T09:03:19;25.00;42.30
68433;DHT22;55412;51.350;17.056;2022-07-29T09:05:47;25.10;40.20
68433;DHT22;55412;51.350;17.056;2022-07-29T09:08:15;25.10;40.90
68433;DHT22;55412;51.350;17.056;2022-07-29T09:10:43;25.00;40.50
68433;DHT22;55412;51.350;17.056;2022-07-29T09:13:09;24.90;40.60
68433;DHT22;55412;51.350;17.056;2022-07-29T09:15:36;25.10;41.10
68433;DHT22;55412;51.350;17.056;2022-07-29T09:18:02;25.30;40.80
68433;DHT22;55412;51.350;17.056;2022-07-29T09:20:28;25.50;39.50
68433;DHT22;55412;51.350;17.056;2022-07-29T09:23:14;25.70;39.80
68433;DHT22;55412;51.350;17.056;2022-07-29T09:25:41;26.00;40.50
68433;DHT22;55412;51.350;17.056;2022-07-29T09:28:15;26.00;38.90
68433;DHT22;55412;51.350;17.056;2022-07-29T09:30:52;25.90;39.40
68433;DHT22;55412;51.350;17.056;2022-07-29T09:33:21;25.80;39.20
68433;DHT22;55412;51.350;17.056;2022-07-29T09:36:06;25.70;39.50
68433;DHT22;55412;51.350;17.056;2022-07-29T09:38:34;25.90;39.30
68433;DHT22;55412;51.350;17.056;2022-07-29T09:41:04;25.90;39.30
68433;DHT22;55412;51.350;17.056;2022-07-29T09:43:30;25.90;39.80
68433;DHT22;55412;51.350;17.056;2022-07-29T09:46:12;26.00;39.30
68433;DHT22;55412;51.350;17.056;2022-07-29T09:48:39;26.10;39.10
68433;DHT22;55412;51.350;17.056;2022-07-29T09:51:05;26.00;39.20
68433;DHT22;55412;51.350;17.056;2022-07-29T09:53:45;25.90;39.90
68433;DHT22;55412;51.350;17.056;2022-07-29T09:56:11;25.80;39.30
68433;DHT22;55412;51.350;17.056;2022-07-29T09:58:37;25.80;39.80
68433;DHT22;55412;51.350;17.056;2022-07-29T10:01:03;25.50;39.20
68433;DHT22;55412;51.350;17.056;2022-07-29T10:03:29;25.50;39.70
68433;DHT22;55412;51.350;17.056;2022-07-29T10:06:07;25.70;40.90
68433;DHT22;55412;51.350;17.056;2022-07-29T10:08:34;25.60;39.40
68433;DHT22;55412;51.350;17.056;2022-07-29T10:11:16;25.60;39.80
68433;DHT22;55412;51.350;17.056;2022-07-29T10:13:44;25.80;39.90
68433;DHT22;55412;51.350;17.056;2022-07-29T10:16:13;25.80;39.40
68433;DHT22;55412;51.350;17.056;2022-07-29T10:18:41;25.80;39.10
68433;DHT22;55412;51.350;17.056;2022-07-29T10:21:09;25.80;39.60
68433;DHT22;55412;51.350;17.056;2022-07-29T10:23:36;26.00;39.50
68433;DHT22;55412;51.350;17.056;2022-07-29T10:26:03;26.00;39.00
68433;DHT22;55412;51.350;17.056;2022-07-29T10:28:31;26.10;39.20
68433;DHT22;55412;51.350;17.056;2022-07-29T10:31:04;26.00;39.20
68433;DHT22;55412;51.350;17.056;2022-07-29T10:33:47;25.90;39.20
68433;DHT22;55412;51.350;17.056;2022-07-29T10:36:56;26.10;39.30
68433;DHT22;55412;51.350;17.056;2022-07-29T10:39:59;26.30;38.70
68433;DHT22;55412;51.350;17.056;2022-07-29T10:42:52;26.20;39.00
68433;DHT22;55412;51.350;17.056;2022-07-29T10:45:19;26.20;38.20
68433;DHT22;55412;51.350;17.056;2022-07-29T10:47:45;26.20;38.40
68433;DHT22;55412;51.350;17.056;2022-07-29T10:50:11;26.20;38.40
68433;DHT22;55412;51.350;17.056;2022-07-29T10:55:38;26.50;39.10
68433;DHT22;55412;51.350;17.056;2022-07-29T10:58:18;26.40;38.10
68433;DHT22;55412;51.350;17.056;2022-07-29T11:00:49;26.50;38.10
68433;DHT22;55412;51.350;17.056;2022-07-29T11:03:42;26.50;38.60
68433;DHT22;55412;51.350;17.056;2022-07-29T11:06:11;26.60;37.90
68433;DHT22;55412;51.350;17.056;2022-07-29T11:08:37;26.70;37.80
68433;DHT22;55412;51.350;17.056;2022-07-29T11:13:53;26.60;37.90
68433;DHT22;55412;51.350;17.056;2022-07-29T11:16:21;26.70;37.70
68433;DHT22;55412;51.350;17.056;2022-07-29T11:21:37;26.90;37.10
68433;DHT22;55412;51.350;17.056;2022-07-29T11:24:15;26.70;37.90
68433;DHT22;55412;51.350;17.056;2022-07-29T11:26:43;26.50;37.90
68433;DHT22;55412;51.350;17.056;2022-07-29T11:29:19;26.40;37.90
68433;DHT22;55412;51.350;17.056;2022-07-29T11:31:51;26.40;38.60
68433;DHT22;55412;51.350;17.056;2022-07-29T11:34:31;26.40;38.30
68433;DHT22;55412;51.350;17.056;2022-07-29T11:39:37;26.60;38.50
68433;DHT22;55412;51.350;17.056;2022-07-29T11:47:49;26.70;38.60
68433;DHT22;55412;51.350;17.056;2022-07-29T11:52:56;26.60;37.20
68433;DHT22;55412;51.350;17.056;2022-07-29T11:55:23;26.40;37.90
68433;DHT22;55412;51.350;17.056;2022-07-29T11:57:58;26.60;39.00
68433;DHT22;55412;51.350;17.056;2022-07-29T12:00:29;26.50;37.70
68433;DHT22;55412;51.350;17.056;2022-07-29T12:03:03;26.40;37.50
68433;DHT22;55412;51.350;17.056;2022-07-29T12:05:42;26.30;37.80
68433;DHT22;55412;51.350;17.056;2022-07-29T12:08:21;26.20;37.90
68433;DHT22;55412;51.350;17.056;2022-07-29T12:10:51;26.20;38.60
68433;DHT22;55412;51.350;17.056;2022-07-29T12:13:21;26.30;38.10
68433;DHT22;55412;51.350;17.056;2022-07-29T12:15:55;26.30;38.20
68433;DHT22;55412;51.350;17.056;2022-07-29T12:18:23;26.50;38.50
68433;DHT22;55412;51.350;17.056;2022-07-29T12:20:59;26.60;37.40
68433;DHT22;55412;51.350;17.056;2022-07-29T12:23:30;26.50;37.50
68433;DHT22;55412;51.350;17.056;2022-07-29T12:25:58;26.50;37.70
68433;DHT22;55412;51.350;17.056;2022-07-29T12:28:24;26.70;38.20
68433;DHT22;55412;51.350;17.056;2022-07-29T12:30:51;27.00;37.70
68433;DHT22;55412;51.350;17.056;2022-07-29T12:33:28;27.30;37.30
68433;DHT22;55412;51.350;17.056;2022-07-29T12:35:57;27.60;37.90
68433;DHT22;55412;51.350;17.056;2022-07-29T12:38:25;27.70;36.40
68433;DHT22;55412;51.350;17.056;2022-07-29T12:40:53;27.50;36.50
68433;DHT22;55412;51.350;17.056;2022-07-29T12:43:21;27.40;36.50
68433;DHT22;55412;51.350;17.056;2022-07-29T12:45:53;27.20;36.30
68433;DHT22;55412;51.350;17.056;2022-07-29T12:48:37;27.20;36.60
68433;DHT22;55412;51.350;17.056;2022-07-29T12:51:06;27.10;36.60
68433;DHT22;55412;51.350;17.056;2022-07-29T12:53:33;27.00;37.80
68433;DHT22;55412;51.350;17.056;2022-07-29T12:56:00;27.10;37.60
68433;DHT22;55412;51.350;17.056;2022-07-29T12:58:50;27.30;37.50
68433;DHT22;55412;51.350;17.056;2022-07-29T13:01:19;27.50;36.50
68433;DHT22;55412;51.350;17.056;2022-07-29T13:03:54;27.60;37.30
68433;DHT22;55412;51.350;17.056;2022-07-29T13:06:37;27.60;37.20
68433;DHT22;55412;51.350;17.056;2022-07-29T13:09:16;27.50;38.10
68433;DHT22;55412;51.350;17.056;2022-07-29T13:11:45;27.30;37.50
68433;DHT22;55412;51.350;17.056;2022-07-29T13:14:31;27.20;38.10
68433;DHT22;55412;51.350;17.056;2022-07-29T13:19:37;27.30;38.70
68433;DHT22;55412;51.350;17.056;2022-07-29T13:22:10;27.40;38.20
68433;DHT22;55412;51.350;17.056;2022-07-29T13:27:22;27.40;38.60
68433;DHT22;55412;51.350;17.056;2022-07-29T13:29:50;27.40;38.20
68433;DHT22;55412;51.350;17.056;2022-07-29T13:32:19;27.50;37.90
68433;DHT22;55412;51.350;17.056;2022-07-29T13:34:45;27.60;38.10
68433;DHT22;55412;51.350;17.056;2022-07-29T13:37:11;27.60;37.50
68433;DHT22;55412;51.350;17.056;2022-07-29T13:39:39;27.60;37.60
68433;DHT22;55412;51.350;17.056;2022-07-29T13:42:06;27.60;37.40
68433;DHT22;55412;51.350;17.056;2022-07-29T13:44:34;27.60;37.80
68433;DHT22;55412;51.350;17.056;2022-07-29T13:47:01;27.80;37.40
68433;DHT22;55412;51.350;17.056;2022-07-29T13:49:27;27.90;37.90
68433;DHT22;55412;51.350;17.056;2022-07-29T13:51:54;28.00;37.80
68433;DHT22;55412;51.350;17.056;2022-07-29T13:54:20;28.20;38.20
68433;DHT22;55412;51.350;17.056;2022-07-29T13:56:46;28.30;38.50
68433;DHT22;55412;51.350;17.056;2022-07-29T13:59:12;28.30;37.60
68433;DHT22;55412;51.350;17.056;2022-07-29T14:01:39;28.30;37.50
68433;DHT22;55412;51.350;17.056;2022-07-29T14:04:08;28.40;38.40
68433;DHT22;55412;51.350;17.056;2022-07-29T14:06:35;28.30;38.00
68433;DHT22;55412;51.350;17.056;2022-07-29T14:09:03;28.20;37.60
68433;DHT22;55412;51.350;17.056;2022-07-29T14:11:32;28.10;38.80
68433;DHT22;55412;51.350;17.056;2022-07-29T14:13:59;28.10;38.40
68433;DHT22;55412;51.350;17.056;2022-07-29T14:16:25;27.70;37.60
68433;DHT22;55412;51.350;17.056;2022-07-29T14:18:51;27.60;38.50
68433;DHT22;55412;51.350;17.056;2022-07-29T14:21:17;27.70;38.80
68433;DHT22;55412;51.350;17.056;2022-07-29T14:23:44;27.70;38.80
68433;DHT22;55412;51.350;17.056;2022-07-29T14:26:10;27.90;38.50
68433;DHT22;55412;51.350;17.056;2022-07-29T14:28:36;27.90;38.50
68433;DHT22;55412;51.350;17.056;2022-07-29T14:31:02;27.80;38.20
68433;DHT22;55412;51.350;17.056;2022-07-29T14:33:28;27.80;38.60
68433;DHT22;55412;51.350;17.056;2022-07-29T14:35:54;27.70;38.90
68433;DHT22;55412;51.350;17.056;2022-07-29T14:38:20;27.60;38.70
68433;DHT22;55412;51.350;17.056;2022-07-29T14:40:46;27.60;38.80
68433;DHT22;55412;51.350;17.056;2022-07-29T14:43:13;27.50;38.10
68433;DHT22;55412;51.350;17.056;2022-07-29T14:45:40;27.50;38.70
68433;DHT22;55412;51.350;17.056;2022-07-29T14:48:06;27.60;38.70
68433;DHT22;55412;51.350;17.056;2022-07-29T14:50:33;27.70;39.50
68433;DHT22;55412;51.350;17.056;2022-07-29T14:53:02;27.70;38.60
68433;DHT22;55412;51.350;17.056;2022-07-29T14:55:28;27.70;39.20
68433;DHT22;55412;51.350;17.056;2022-07-29T14:57:54;27.60;39.10
68433;DHT22;55412;51.350;17.056;2022-07-29T15:00:22;27.50;38.80
68433;DHT22;55412;51.350;17.056;2022-07-29T15:02:48;27.30;39.30
68433;DHT22;55412;51.350;17.056;2022-07-29T15:05:14;27.20;40.00
68433;DHT22;55412;51.350;17.056;2022-07-29T15:07:41;27.30;40.00
68433;DHT22;55412;51.350;17.056;2022-07-29T15:10:07;27.30;39.80
68433;DHT22;55412;51.350;17.056;2022-07-29T15:12:33;27.20;39.60
68433;DHT22;55412;51.350;17.056;2022-07-29T15:14:59;27.20;39.50
68433;DHT22;55412;51.350;17.056;2022-07-29T15:17:26;27.20;39.50
68433;DHT22;55412;51.350;17.056;2022-07-29T15:19:52;27.10;40.60
68433;DHT22;55412;51.350;17.056;2022-07-29T15:22:18;27.20;40.30
68433;DHT22;55412;51.350;17.056;2022-07-29T15:24:44;27.20;40.50
68433;DHT22;55412;51.350;17.056;2022-07-29T15:27:10;27.10;40.20
68433;DHT22;55412;51.350;17.056;2022-07-29T15:29:42;27.00;40.30
68433;DHT22;55412;51.350;17.056;2022-07-29T15:32:10;27.00;40.70
68433;DHT22;55412;51.350;17.056;2022-07-29T15:34:37;26.90;40.20
68433;DHT22;55412;51.350;17.056;2022-07-29T15:37:04;26.90;40.70
68433;DHT22;55412;51.350;17.056;2022-07-29T15:39:31;27.00;40.40
68433;DHT22;55412;51.350;17.056;2022-07-29T15:41:57;27.00;40.10
68433;DHT22;55412;51.350;17.056;2022-07-29T15:44:25;27.00;40.10
68433;DHT22;55412;51.350;17.056;2022-07-29T15:46:52;27.00;41.00
68433;DHT22;55412;51.350;17.056;2022-07-29T15:49:35;27.10;40.00
68433;DHT22;55412;51.350;17.056;2022-07-29T15:52:07;27.10;40.00
68433;DHT22;55412;51.350;17.056;2022-07-29T15:54:38;27.10;40.70
68433;DHT22;55412;51.350;17.056;2022-07-29T15:57:07;27.10;40.50
68433;DHT22;55412;51.350;17.056;2022-07-29T15:59:33;27.00;40.40
68433;DHT22;55412;51.350;17.056;2022-07-29T16:02:00;26.90;40.20
68433;DHT22;55412;51.350;17.056;2022-07-29T16:04:27;26.70;40.00
68433;DHT22;55412;51.350;17.056;2022-07-29T16:06:53;26.70;40.80